Terminal Aerodrome Forecast
Issued by NWS

Home | Current Version | Previous Version | Text Only | Print | Product List | Glossary On
Versions: 1 2 3 4 5 6 7 8 9 10 11 12 13 14
390
FTUS44 KLIX 251958 AAA
TAFMSY
TAF AMD
KMSY 251958Z 2520/2618 20006KT P6SM VCSH SCT050
      TEMPO 2520/2521 VRB25KT 2SM TSRA BKN025CB
     FM252100 13004KT P6SM SCT050
     FM260100 19004KT P6SM SCT200
     FM261300 35004KT P6SM BKN200=

USA.gov is the U.S. government's official web portal to all federal, state and local government web resources and services.